Vremea acum in Oradea - Romania

Vrei sa afli care e starea vremii acum in Bihor - Romania? Dorim sa iti furnizam starea vremii pentru Bihor - Romania. Starea vremii Bihor - Romania pentru astazi.

Vremea acum in Oradea

Temperatura: 23 °C

Este: Senin
Se simte ca: 24.8 °C
Innorat: 0 %
Precipitatii: %
Presiune atmosferica: 1010 hPa
Umiditate: 50%
Vizibilitate: 10 km
Vantul bate din S cu 20.2 km/h

Evolutia vremii in Oradea pe ore

Ora: 03:00
Temperatura: °C
Sansa de precipitatii: %
Ora Descriere Temp Se simte Precipitatii Umiditate Vant
00:00Partial innorat13.3°12.3°0%60%SSE 11.9 KM/H
01:00Partial innorat13.4°12.4°0%59%S 12.2 KM/H
02:00Partial innorat13.8°12.8°0%57%S 13 KM/H
03:00Partial innorat12.9°11.9°0%59%S 11.5 KM/H
04:00Innorat13.4°12.4°0%57%S 12.6 KM/H
05:00Partial innorat13.5°12.4°0%56%S 13 KM/H
06:00Innorat13.7°12.6°0%56%S 14 KM/H
07:00Partial innorat13.7°12.7°0%58%S 13 KM/H
08:00Senin15.5°15.5°0%57%S 14.8 KM/H
09:00Partial innorat17.7°17.7°0%52%SSW 16.9 KM/H
10:00Partial innorat17°17°0%56%S 16.6 KM/H
11:00Partial innorat18.7°18.7°0%55%S 18 KM/H
12:00Innorat19.9°19.9°0%53%S 19.4 KM/H
13:00Partial innorat20°20°0%54%S 17.6 KM/H
14:00Partial innorat20.3°20.3°0%55%S 13.3 KM/H
15:00Partial innorat19.9°19.9°0%57%SE 10.4 KM/H
16:00Senin22.1°24.6°0%56%SE 10.8 KM/H
17:00Partial innorat20.4°20.4°0%60%ESE 13 KM/H
18:00Partial innorat20.1°20.1°0%61%ESE 13.7 KM/H
19:00Partial innorat20.2°20.2°0%58%SE 13.7 KM/H
20:00Partial innorat20°20°0%56%SSE 14.8 KM/H
21:00Senin20.2°20.2°0%54%S 16.2 KM/H
22:00Senin19.6°19.6°0%56%SSW 18.7 KM/H
23:00Senin19°19°0%59%SSW 15.5 KM/H




tutorials